LFKSLFKB

Guest
Details From LFKS - Solenzara
To LFKB - Bastia Poretta
Flight Number -
Tags generated
Created
Modified
Stats Distance 38 nm / 70 km
Max Altitude 300 ft / 91 m
Waypoints 3
Social Downloads 8
Likes 0
Share VATSIM

Download

Looking for another format? Having issues loading an existing format? Contact us
Advertisement - Login to hide

Notes

Basic altitude profile: - Ascent Rate: 2500ft/min - Ascent Speed: 250kts - Cruise Altitude: 35000ft - Cruise Speed: 420kts - Descent Rate: 1500ft/min - Descent Speed: 250kts Options: - Use NATs: yes - Use PACOTS: yes - Use low airways: yes - Use high airways: yes

Route

LFKS SZA LFKB

ID Type Via Altitude Latitude Longitude Leg Dist Tot Dist Heading (true) Name
O LFKS APT - 0 ft / 0 m 41.92462˚ 9.40532˚ - 0 nm - Solenzara
SZA VOR - 300 ft / 91 m 41.93747˚ 9.41622˚ 0 nm 0 nm 32° / 32° -
O LFKB APT - 0 ft / 0 m 42.55251˚ 9.48371˚ 37 nm 37 nm 5° / 5° Bastia Poretta

Altitude Profile

Advertisement - Login to hide

LFKS

Details ICAO LFKS (SOZ)
Name Solenzara
Region France
Timezone Europe/Paris (UTC+1.0)
Stats Elevation 27 ft / 8 m (AMSL)
Location 41.924616° 9.405323°
Runways 1
Magnetic Variation 2.452° E

METAR

LFKS 151600Z AUTO 19006KT 170V250 9999 BKN066 BKN180 BKN200 11/09 Q0999

Decode

TAF

TAF LFKS 151134Z 1511/1609 CNL

Decode

Departure Runways

ID Width Length Bearing (true) Bearing (mag) Surface Threshold Offset Overrun Length
18 148 ft / 45 m 8,582 ft / 2,616 m 179.77° 177.32° Concrete 0 ft / 0 m 686 ft / 209 m
36 148 ft / 45 m 8,582 ft / 2,616 m 359.77° 357.32° Concrete 0 ft / 0 m 935 ft / 285 m

LFKB

Details ICAO LFKB (BIA)
Name Bastia Poretta
Region France
Timezone Europe/Paris (UTC+1.0)
Stats Elevation 25 ft / 8 m (AMSL)
Location 42.552508° 9.483709°
Runways 1
Magnetic Variation 2.485° E

METAR

LFKB 151600Z AUTO 21003KT 160V330 9999 FEW092 11/06 Q0998 NOSIG

Decode

TAF

TAF TAF LFKB 151400Z 1515/1615 VRB05KT 9999 SCT050 SCT100 BKN180 BECMG 1518/1519 24020G30KT BECMG 1602/1603 24006KT BECMG 1612/1615 34010KT PROB40 TEMPO 1612/1615 TSRA FEW020CB TX13/1515Z TN09/1603Z

Decode

Destination Runways

ID Width Length Bearing (true) Bearing (mag) Surface Threshold Offset Overrun Length
16 148 ft / 45 m 8,273 ft / 2,522 m 162.83° 160.34° Concrete 0 ft / 0 m 131 ft / 40 m
34 148 ft / 45 m 8,273 ft / 2,522 m 342.84° 340.35° Concrete 0 ft / 0 m 0 ft / 0 m

Approach Navaids

Runway Type Ident Frequency Range Bearing (true) Bearing (mag) Slope Elevation
34 Localiser BP 111.35 MHz 27 nm / 50 km 342.81° 340.32° - 25 ft / 8 m (AMSL)
34 Glidescope BP 111.35 MHz 27 nm / 50 km 342.81° 340.32° 3.00° 25 ft / 8 m (AMSL)
34 DME BP 111.35 MHz 18 nm / 33 km - - - 69 ft / 21 m (AMSL)